sensor_id;sensor_type;location;lat;lon;timestamp;P1;durP1;ratioP1;P2;durP2;ratioP2
40729;SDS011;26418;50.070;8.436;2024-01-27T00:01:44;8.25;;;2.33;;
40729;SDS011;26418;50.070;8.436;2024-01-27T00:04:10;11.38;;;2.95;;
40729;SDS011;26418;50.070;8.436;2024-01-27T00:06:35;10.68;;;2.22;;
40729;SDS011;26418;50.070;8.436;2024-01-27T00:09:02;10.55;;;2.47;;
40729;SDS011;26418;50.070;8.436;2024-01-27T00:11:27;12.30;;;2.72;;
40729;SDS011;26418;50.070;8.436;2024-01-27T00:13:53;7.20;;;2.70;;
40729;SDS011;26418;50.070;8.436;2024-01-27T00:16:19;10.88;;;2.55;;
40729;SDS011;26418;50.070;8.436;2024-01-27T00:18:45;10.10;;;2.35;;
40729;SDS011;26418;50.070;8.436;2024-01-27T00:21:11;7.30;;;1.88;;
40729;SDS011;26418;50.070;8.436;2024-01-27T00:23:36;10.40;;;2.45;;
40729;SDS011;26418;50.070;8.436;2024-01-27T00:26:02;14.10;;;3.40;;
40729;SDS011;26418;50.070;8.436;2024-01-27T00:28:28;8.60;;;2.53;;
40729;SDS011;26418;50.070;8.436;2024-01-27T00:30:54;9.02;;;2.47;;
40729;SDS011;26418;50.070;8.436;2024-01-27T00:33:21;9.50;;;2.47;;
40729;SDS011;26418;50.070;8.436;2024-01-27T00:35:47;7.00;;;2.30;;
40729;SDS011;26418;50.070;8.436;2024-01-27T00:38:12;7.78;;;2.47;;
40729;SDS011;26418;50.070;8.436;2024-01-27T00:40:38;6.72;;;2.60;;
40729;SDS011;26418;50.070;8.436;2024-01-27T00:43:04;9.43;;;1.98;;
40729;SDS011;26418;50.070;8.436;2024-01-27T00:45:29;7.53;;;2.58;;
40729;SDS011;26418;50.070;8.436;2024-01-27T00:47:55;9.75;;;1.85;;
40729;SDS011;26418;50.070;8.436;2024-01-27T00:50:21;6.38;;;1.65;;
40729;SDS011;26418;50.070;8.436;2024-01-27T00:52:47;7.40;;;2.17;;
40729;SDS011;26418;50.070;8.436;2024-01-27T00:55:12;10.85;;;1.70;;
40729;SDS011;26418;50.070;8.436;2024-01-27T00:57:38;9.93;;;1.60;;
40729;SDS011;26418;50.070;8.436;2024-01-27T01:00:05;8.23;;;1.45;;
40729;SDS011;26418;50.070;8.436;2024-01-27T01:02:31;4.53;;;1.10;;
40729;SDS011;26418;50.070;8.436;2024-01-27T01:04:57;13.68;;;2.38;;
40729;SDS011;26418;50.070;8.436;2024-01-27T01:07:23;10.57;;;1.80;;
40729;SDS011;26418;50.070;8.436;2024-01-27T01:09:48;8.80;;;2.25;;
40729;SDS011;26418;50.070;8.436;2024-01-27T01:12:14;8.05;;;1.98;;
40729;SDS011;26418;50.070;8.436;2024-01-27T01:14:40;6.75;;;1.45;;
40729;SDS011;26418;50.070;8.436;2024-01-27T01:17:06;10.05;;;1.98;;
40729;SDS011;26418;50.070;8.436;2024-01-27T01:19:32;4.80;;;1.33;;
40729;SDS011;26418;50.070;8.436;2024-01-27T01:21:57;6.22;;;1.75;;
40729;SDS011;26418;50.070;8.436;2024-01-27T01:24:23;10.32;;;1.85;;
40729;SDS011;26418;50.070;8.436;2024-01-27T01:26:49;9.73;;;1.67;;
40729;SDS011;26418;50.070;8.436;2024-01-27T01:29:14;10.90;;;1.52;;
40729;SDS011;26418;50.070;8.436;2024-01-27T01:31:41;6.63;;;1.73;;
40729;SDS011;26418;50.070;8.436;2024-01-27T01:34:08;7.55;;;1.83;;
40729;SDS011;26418;50.070;8.436;2024-01-27T01:36:33;8.57;;;1.65;;
40729;SDS011;26418;50.070;8.436;2024-01-27T01:38:59;7.78;;;2.10;;
40729;SDS011;26418;50.070;8.436;2024-01-27T01:41:24;11.63;;;2.03;;
40729;SDS011;26418;50.070;8.436;2024-01-27T01:43:50;9.13;;;1.70;;
40729;SDS011;26418;50.070;8.436;2024-01-27T01:46:16;10.30;;;2.08;;
40729;SDS011;26418;50.070;8.436;2024-01-27T01:48:42;10.65;;;2.45;;
40729;SDS011;26418;50.070;8.436;2024-01-27T01:51:08;12.30;;;2.03;;
40729;SDS011;26418;50.070;8.436;2024-01-27T01:53:34;12.40;;;1.95;;
40729;SDS011;26418;50.070;8.436;2024-01-27T01:56:00;3.38;;;1.02;;
40729;SDS011;26418;50.070;8.436;2024-01-27T01:58:27;8.65;;;1.80;;
40729;SDS011;26418;50.070;8.436;2024-01-27T02:00:59;9.18;;;1.48;;
40729;SDS011;26418;50.070;8.436;2024-01-27T02:03:28;7.65;;;1.48;;
40729;SDS011;26418;50.070;8.436;2024-01-27T02:05:54;12.23;;;2.22;;
40729;SDS011;26418;50.070;8.436;2024-01-27T02:08:20;11.60;;;2.15;;
40729;SDS011;26418;50.070;8.436;2024-01-27T02:10:46;6.32;;;1.45;;
40729;SDS011;26418;50.070;8.436;2024-01-27T02:13:18;17.40;;;1.88;;
40729;SDS011;26418;50.070;8.436;2024-01-27T02:15:48;5.63;;;1.20;;
40729;SDS011;26418;50.070;8.436;2024-01-27T02:18:15;5.13;;;1.33;;
40729;SDS011;26418;50.070;8.436;2024-01-27T02:20:41;9.45;;;1.92;;
40729;SDS011;26418;50.070;8.436;2024-01-27T02:23:07;7.72;;;1.85;;
40729;SDS011;26418;50.070;8.436;2024-01-27T02:25:33;7.47;;;1.63;;
40729;SDS011;26418;50.070;8.436;2024-01-27T02:27:59;7.60;;;1.65;;
40729;SDS011;26418;50.070;8.436;2024-01-27T02:30:26;12.70;;;2.22;;
40729;SDS011;26418;50.070;8.436;2024-01-27T02:32:51;9.85;;;1.27;;
40729;SDS011;26418;50.070;8.436;2024-01-27T02:35:17;10.18;;;2.15;;
40729;SDS011;26418;50.070;8.436;2024-01-27T02:37:43;6.25;;;1.65;;
40729;SDS011;26418;50.070;8.436;2024-01-27T02:40:09;6.07;;;1.65;;
40729;SDS011;26418;50.070;8.436;2024-01-27T02:42:35;8.07;;;1.60;;
40729;SDS011;26418;50.070;8.436;2024-01-27T02:45:02;3.50;;;1.50;;
40729;SDS011;26418;50.070;8.436;2024-01-27T02:47:28;9.30;;;2.03;;
40729;SDS011;26418;50.070;8.436;2024-01-27T02:49:54;8.05;;;1.65;;
40729;SDS011;26418;50.070;8.436;2024-01-27T02:52:19;6.88;;;2.05;;
40729;SDS011;26418;50.070;8.436;2024-01-27T02:54:45;8.35;;;1.65;;
40729;SDS011;26418;50.070;8.436;2024-01-27T02:57:10;11.13;;;1.65;;
40729;SDS011;26418;50.070;8.436;2024-01-27T02:59:36;6.45;;;1.27;;
40729;SDS011;26418;50.070;8.436;2024-01-27T03:02:04;10.77;;;2.28;;
40729;SDS011;26418;50.070;8.436;2024-01-27T03:04:32;11.68;;;2.20;;
40729;SDS011;26418;50.070;8.436;2024-01-27T03:06:58;10.32;;;2.20;;
40729;SDS011;26418;50.070;8.436;2024-01-27T03:09:23;10.55;;;1.88;;
40729;SDS011;26418;50.070;8.436;2024-01-27T03:11:49;12.57;;;2.53;;
40729;SDS011;26418;50.070;8.436;2024-01-27T03:14:15;9.38;;;1.77;;
40729;SDS011;26418;50.070;8.436;2024-01-27T03:16:40;11.00;;;1.98;;
40729;SDS011;26418;50.070;8.436;2024-01-27T03:19:06;8.40;;;1.73;;
40729;SDS011;26418;50.070;8.436;2024-01-27T03:21:31;3.83;;;1.13;;
40729;SDS011;26418;50.070;8.436;2024-01-27T03:23:57;7.20;;;1.80;;
40729;SDS011;26418;50.070;8.436;2024-01-27T03:26:23;9.68;;;2.65;;
40729;SDS011;26418;50.070;8.436;2024-01-27T03:28:50;10.70;;;2.88;;
40729;SDS011;26418;50.070;8.436;2024-01-27T03:31:15;11.32;;;3.00;;
40729;SDS011;26418;50.070;8.436;2024-01-27T03:33:41;14.43;;;3.17;;
40729;SDS011;26418;50.070;8.436;2024-01-27T03:36:10;15.18;;;4.03;;
40729;SDS011;26418;50.070;8.436;2024-01-27T03:38:36;15.77;;;4.07;;
40729;SDS011;26418;50.070;8.436;2024-01-27T03:41:02;29.83;;;6.05;;
40729;SDS011;26418;50.070;8.436;2024-01-27T03:43:29;22.58;;;6.32;;
40729;SDS011;26418;50.070;8.436;2024-01-27T03:45:56;28.48;;;6.00;;
40729;SDS011;26418;50.070;8.436;2024-01-27T03:48:22;22.20;;;6.95;;
40729;SDS011;26418;50.070;8.436;2024-01-27T03:50:47;30.52;;;8.48;;
40729;SDS011;26418;50.070;8.436;2024-01-27T03:53:13;31.42;;;7.60;;
40729;SDS011;26418;50.070;8.436;2024-01-27T03:55:39;34.28;;;8.50;;
40729;SDS011;26418;50.070;8.436;2024-01-27T03:58:04;26.00;;;7.53;;
40729;SDS011;26418;50.070;8.436;2024-01-27T04:00:30;23.08;;;6.40;;
40729;SDS011;26418;50.070;8.436;2024-01-27T04:02:58;25.70;;;6.70;;
40729;SDS011;26418;50.070;8.436;2024-01-27T04:05:24;21.92;;;6.07;;
40729;SDS011;26418;50.070;8.436;2024-01-27T04:07:50;24.17;;;6.45;;
40729;SDS011;26418;50.070;8.436;2024-01-27T04:10:17;24.80;;;5.63;;
40729;SDS011;26418;50.070;8.436;2024-01-27T04:12:43;20.23;;;4.60;;
40729;SDS011;26418;50.070;8.436;2024-01-27T04:15:09;16.13;;;4.90;;
40729;SDS011;26418;50.070;8.436;2024-01-27T04:17:39;19.95;;;5.25;;
40729;SDS011;26418;50.070;8.436;2024-01-27T04:20:06;21.80;;;4.85;;
40729;SDS011;26418;50.070;8.436;2024-01-27T04:22:33;17.58;;;4.60;;
40729;SDS011;26418;50.070;8.436;2024-01-27T04:24:58;18.85;;;4.13;;
40729;SDS011;26418;50.070;8.436;2024-01-27T04:27:27;19.10;;;4.45;;
40729;SDS011;26418;50.070;8.436;2024-01-27T04:29:53;12.82;;;3.40;;
40729;SDS011;26418;50.070;8.436;2024-01-27T04:32:18;11.52;;;3.65;;
40729;SDS011;26418;50.070;8.436;2024-01-27T04:34:46;16.75;;;3.65;;
40729;SDS011;26418;50.070;8.436;2024-01-27T04:37:12;18.73;;;3.92;;
40729;SDS011;26418;50.070;8.436;2024-01-27T04:39:37;11.95;;;3.53;;
40729;SDS011;26418;50.070;8.436;2024-01-27T04:42:03;13.55;;;3.85;;
40729;SDS011;26418;50.070;8.436;2024-01-27T04:44:31;13.52;;;3.63;;
40729;SDS011;26418;50.070;8.436;2024-01-27T04:46:57;16.92;;;3.67;;
40729;SDS011;26418;50.070;8.436;2024-01-27T04:49:22;24.20;;;5.50;;
40729;SDS011;26418;50.070;8.436;2024-01-27T04:51:48;17.77;;;5.00;;
40729;SDS011;26418;50.070;8.436;2024-01-27T04:54:13;13.98;;;5.10;;
40729;SDS011;26418;50.070;8.436;2024-01-27T04:56:39;27.75;;;5.78;;
40729;SDS011;26418;50.070;8.436;2024-01-27T04:59:04;24.48;;;5.78;;
40729;SDS011;26418;50.070;8.436;2024-01-27T05:01:30;15.88;;;4.70;;
40729;SDS011;26418;50.070;8.436;2024-01-27T05:03:56;17.50;;;3.42;;
40729;SDS011;26418;50.070;8.436;2024-01-27T05:06:22;11.60;;;2.92;;
40729;SDS011;26418;50.070;8.436;2024-01-27T05:08:47;11.60;;;2.65;;
40729;SDS011;26418;50.070;8.436;2024-01-27T05:11:13;10.40;;;2.63;;
40729;SDS011;26418;50.070;8.436;2024-01-27T05:13:39;10.00;;;2.40;;
40729;SDS011;26418;50.070;8.436;2024-01-27T05:16:05;6.03;;;2.00;;
40729;SDS011;26418;50.070;8.436;2024-01-27T05:18:31;10.50;;;2.72;;
40729;SDS011;26418;50.070;8.436;2024-01-27T05:20:56;10.45;;;2.35;;
40729;SDS011;26418;50.070;8.436;2024-01-27T05:23:22;11.48;;;2.08;;
40729;SDS011;26418;50.070;8.436;2024-01-27T05:25:48;12.68;;;3.08;;
40729;SDS011;26418;50.070;8.436;2024-01-27T05:28:14;9.07;;;2.53;;
40729;SDS011;26418;50.070;8.436;2024-01-27T05:30:39;9.95;;;1.70;;
40729;SDS011;26418;50.070;8.436;2024-01-27T05:33:05;9.45;;;2.33;;
40729;SDS011;26418;50.070;8.436;2024-01-27T05:35:31;8.27;;;2.28;;
40729;SDS011;26418;50.070;8.436;2024-01-27T05:37:56;9.82;;;2.38;;
40729;SDS011;26418;50.070;8.436;2024-01-27T05:40:22;11.63;;;1.90;;
40729;SDS011;26418;50.070;8.436;2024-01-27T05:42:47;11.68;;;2.28;;
40729;SDS011;26418;50.070;8.436;2024-01-27T05:45:14;8.90;;;1.70;;
40729;SDS011;26418;50.070;8.436;2024-01-27T05:47:40;11.88;;;2.17;;
40729;SDS011;26418;50.070;8.436;2024-01-27T05:50:06;7.78;;;2.63;;
40729;SDS011;26418;50.070;8.436;2024-01-27T05:52:33;8.50;;;2.00;;
40729;SDS011;26418;50.070;8.436;2024-01-27T05:55:00;6.90;;;2.38;;
40729;SDS011;26418;50.070;8.436;2024-01-27T05:57:27;11.82;;;2.13;;
40729;SDS011;26418;50.070;8.436;2024-01-27T05:59:53;11.57;;;1.90;;
40729;SDS011;26418;50.070;8.436;2024-01-27T06:02:19;12.80;;;2.65;;
40729;SDS011;26418;50.070;8.436;2024-01-27T06:04:44;10.90;;;2.22;;
40729;SDS011;26418;50.070;8.436;2024-01-27T06:07:10;12.20;;;3.05;;
40729;SDS011;26418;50.070;8.436;2024-01-27T06:09:39;12.80;;;3.88;;
40729;SDS011;26418;50.070;8.436;2024-01-27T06:12:04;11.85;;;2.92;;
40729;SDS011;26418;50.070;8.436;2024-01-27T06:14:30;9.45;;;2.70;;
40729;SDS011;26418;50.070;8.436;2024-01-27T06:16:56;8.10;;;2.50;;
40729;SDS011;26418;50.070;8.436;2024-01-27T06:19:22;4.78;;;1.90;;
40729;SDS011;26418;50.070;8.436;2024-01-27T06:21:47;7.47;;;1.95;;
40729;SDS011;26418;50.070;8.436;2024-01-27T06:24:13;5.93;;;2.42;;
40729;SDS011;26418;50.070;8.436;2024-01-27T06:26:38;7.22;;;2.40;;
40729;SDS011;26418;50.070;8.436;2024-01-27T06:29:04;8.05;;;2.15;;
40729;SDS011;26418;50.070;8.436;2024-01-27T06:31:29;7.85;;;1.75;;
40729;SDS011;26418;50.070;8.436;2024-01-27T06:33:55;8.00;;;2.00;;
40729;SDS011;26418;50.070;8.436;2024-01-27T06:36:20;7.15;;;2.15;;
40729;SDS011;26418;50.070;8.436;2024-01-27T06:38:49;12.13;;;2.45;;
40729;SDS011;26418;50.070;8.436;2024-01-27T06:41:15;4.25;;;1.73;;
40729;SDS011;26418;50.070;8.436;2024-01-27T06:43:41;6.53;;;1.95;;
40729;SDS011;26418;50.070;8.436;2024-01-27T06:46:07;9.50;;;3.03;;
40729;SDS011;26418;50.070;8.436;2024-01-27T06:48:33;7.82;;;2.90;;
40729;SDS011;26418;50.070;8.436;2024-01-27T06:50:59;16.55;;;4.57;;
40729;SDS011;26418;50.070;8.436;2024-01-27T06:53:24;20.30;;;4.63;;
40729;SDS011;26418;50.070;8.436;2024-01-27T06:55:50;13.10;;;4.78;;
40729;SDS011;26418;50.070;8.436;2024-01-27T06:58:16;14.68;;;4.13;;
40729;SDS011;26418;50.070;8.436;2024-01-27T07:00:41;7.47;;;3.42;;
40729;SDS011;26418;50.070;8.436;2024-01-27T07:03:07;13.38;;;4.00;;
40729;SDS011;26418;50.070;8.436;2024-01-27T07:05:33;9.73;;;3.88;;
40729;SDS011;26418;50.070;8.436;2024-01-27T07:08:03;10.15;;;3.60;;
40729;SDS011;26418;50.070;8.436;2024-01-27T07:10:31;18.05;;;4.18;;
40729;SDS011;26418;50.070;8.436;2024-01-27T07:12:56;12.80;;;4.22;;
40729;SDS011;26418;50.070;8.436;2024-01-27T07:15:22;15.65;;;4.20;;
40729;SDS011;26418;50.070;8.436;2024-01-27T07:17:48;14.85;;;4.00;;
40729;SDS011;26418;50.070;8.436;2024-01-27T07:20:14;14.98;;;3.85;;
40729;SDS011;26418;50.070;8.436;2024-01-27T07:22:40;17.95;;;4.13;;
40729;SDS011;26418;50.070;8.436;2024-01-27T07:25:05;11.35;;;3.97;;
40729;SDS011;26418;50.070;8.436;2024-01-27T07:27:32;16.20;;;4.15;;
40729;SDS011;26418;50.070;8.436;2024-01-27T07:29:57;19.00;;;5.15;;
40729;SDS011;26418;50.070;8.436;2024-01-27T07:32:23;13.75;;;4.07;;
40729;SDS011;26418;50.070;8.436;2024-01-27T07:34:48;14.23;;;4.78;;
40729;SDS011;26418;50.070;8.436;2024-01-27T07:37:14;15.18;;;3.97;;
40729;SDS011;26418;50.070;8.436;2024-01-27T07:39:39;21.88;;;3.92;;
40729;SDS011;26418;50.070;8.436;2024-01-27T07:42:05;16.45;;;4.20;;
40729;SDS011;26418;50.070;8.436;2024-01-27T07:44:31;12.40;;;3.63;;
40729;SDS011;26418;50.070;8.436;2024-01-27T07:46:57;12.73;;;3.50;;
40729;SDS011;26418;50.070;8.436;2024-01-27T07:49:22;13.75;;;3.72;;
40729;SDS011;26418;50.070;8.436;2024-01-27T07:51:48;8.95;;;3.08;;
40729;SDS011;26418;50.070;8.436;2024-01-27T07:54:13;8.75;;;3.03;;
40729;SDS011;26418;50.070;8.436;2024-01-27T07:56:39;9.48;;;2.92;;
40729;SDS011;26418;50.070;8.436;2024-01-27T07:59:06;18.23;;;3.83;;
40729;SDS011;26418;50.070;8.436;2024-01-27T08:01:38;9.00;;;3.70;;
40729;SDS011;26418;50.070;8.436;2024-01-27T08:04:05;10.18;;;3.30;;
40729;SDS011;26418;50.070;8.436;2024-01-27T08:06:30;6.63;;;3.05;;
40729;SDS011;26418;50.070;8.436;2024-01-27T08:08:56;6.82;;;3.35;;
40729;SDS011;26418;50.070;8.436;2024-01-27T08:11:22;12.32;;;3.25;;
40729;SDS011;26418;50.070;8.436;2024-01-27T08:13:47;8.60;;;3.88;;
40729;SDS011;26418;50.070;8.436;2024-01-27T08:16:13;9.73;;;2.92;;
40729;SDS011;26418;50.070;8.436;2024-01-27T08:18:42;16.88;;;3.78;;
40729;SDS011;26418;50.070;8.436;2024-01-27T08:21:09;11.63;;;3.22;;
40729;SDS011;26418;50.070;8.436;2024-01-27T08:23:36;15.90;;;3.10;;
40729;SDS011;26418;50.070;8.436;2024-01-27T08:26:02;15.52;;;3.00;;
40729;SDS011;26418;50.070;8.436;2024-01-27T08:28:28;8.15;;;3.05;;
40729;SDS011;26418;50.070;8.436;2024-01-27T08:30:53;11.55;;;2.72;;
40729;SDS011;26418;50.070;8.436;2024-01-27T08:33:19;9.80;;;2.60;;
40729;SDS011;26418;50.070;8.436;2024-01-27T08:35:48;10.43;;;2.78;;
40729;SDS011;26418;50.070;8.436;2024-01-27T08:38:14;9.10;;;2.70;;
40729;SDS011;26418;50.070;8.436;2024-01-27T08:40:39;9.05;;;2.83;;
40729;SDS011;26418;50.070;8.436;2024-01-27T08:43:05;12.50;;;2.72;;
40729;SDS011;26418;50.070;8.436;2024-01-27T08:45:31;13.35;;;2.55;;
40729;SDS011;26418;50.070;8.436;2024-01-27T08:47:57;15.20;;;2.60;;
40729;SDS011;26418;50.070;8.436;2024-01-27T08:50:23;15.82;;;2.80;;
40729;SDS011;26418;50.070;8.436;2024-01-27T08:52:49;14.55;;;3.42;;
40729;SDS011;26418;50.070;8.436;2024-01-27T08:55:15;9.57;;;2.95;;
40729;SDS011;26418;50.070;8.436;2024-01-27T08:57:44;13.05;;;2.67;;
40729;SDS011;26418;50.070;8.436;2024-01-27T09:00:10;7.43;;;3.15;;
40729;SDS011;26418;50.070;8.436;2024-01-27T09:02:38;14.15;;;4.10;;
40729;SDS011;26418;50.070;8.436;2024-01-27T09:05:03;9.63;;;4.25;;
40729;SDS011;26418;50.070;8.436;2024-01-27T09:07:30;14.82;;;4.25;;
40729;SDS011;26418;50.070;8.436;2024-01-27T09:09:56;13.65;;;4.07;;
40729;SDS011;26418;50.070;8.436;2024-01-27T09:12:21;8.18;;;3.13;;
40729;SDS011;26418;50.070;8.436;2024-01-27T09:14:47;8.15;;;3.47;;
40729;SDS011;26418;50.070;8.436;2024-01-27T09:17:13;13.60;;;3.67;;
40729;SDS011;26418;50.070;8.436;2024-01-27T09:19:38;6.82;;;2.95;;
40729;SDS011;26418;50.070;8.436;2024-01-27T09:22:04;11.15;;;3.75;;
40729;SDS011;26418;50.070;8.436;2024-01-27T09:24:29;15.02;;;2.80;;
40729;SDS011;26418;50.070;8.436;2024-01-27T09:26:55;7.05;;;2.80;;
40729;SDS011;26418;50.070;8.436;2024-01-27T09:29:20;9.68;;;2.83;;
40729;SDS011;26418;50.070;8.436;2024-01-27T09:31:46;10.80;;;3.40;;
40729;SDS011;26418;50.070;8.436;2024-01-27T09:34:11;8.43;;;2.83;;
40729;SDS011;26418;50.070;8.436;2024-01-27T09:36:37;7.10;;;3.17;;
40729;SDS011;26418;50.070;8.436;2024-01-27T09:39:02;8.35;;;3.45;;
40729;SDS011;26418;50.070;8.436;2024-01-27T09:41:31;9.00;;;3.00;;
40729;SDS011;26418;50.070;8.436;2024-01-27T09:43:59;16.85;;;3.05;;
40729;SDS011;26418;50.070;8.436;2024-01-27T09:46:27;7.80;;;3.30;;
40729;SDS011;26418;50.070;8.436;2024-01-27T09:48:53;7.38;;;3.15;;
40729;SDS011;26418;50.070;8.436;2024-01-27T09:51:19;13.10;;;4.07;;
40729;SDS011;26418;50.070;8.436;2024-01-27T09:53:45;10.15;;;3.90;;
40729;SDS011;26418;50.070;8.436;2024-01-27T09:56:11;13.27;;;3.17;;
40729;SDS011;26418;50.070;8.436;2024-01-27T09:58:43;11.35;;;2.97;;
40729;SDS011;26418;50.070;8.436;2024-01-27T10:01:09;8.25;;;3.25;;
40729;SDS011;26418;50.070;8.436;2024-01-27T10:03:37;8.32;;;3.50;;
40729;SDS011;26418;50.070;8.436;2024-01-27T10:06:05;9.77;;;3.70;;
40729;SDS011;26418;50.070;8.436;2024-01-27T10:08:35;12.23;;;4.65;;
40729;SDS011;26418;50.070;8.436;2024-01-27T10:11:04;14.20;;;4.43;;
40729;SDS011;26418;50.070;8.436;2024-01-27T10:16:04;16.63;;;3.78;;
40729;SDS011;26418;50.070;8.436;2024-01-27T10:18:31;16.85;;;3.42;;
40729;SDS011;26418;50.070;8.436;2024-01-27T10:20:58;13.85;;;3.15;;
40729;SDS011;26418;50.070;8.436;2024-01-27T10:23:24;8.63;;;3.60;;
40729;SDS011;26418;50.070;8.436;2024-01-27T10:25:51;9.88;;;3.13;;
40729;SDS011;26418;50.070;8.436;2024-01-27T10:28:16;7.30;;;2.70;;
40729;SDS011;26418;50.070;8.436;2024-01-27T10:30:45;9.32;;;2.58;;
40729;SDS011;26418;50.070;8.436;2024-01-27T10:33:13;8.57;;;2.40;;
40729;SDS011;26418;50.070;8.436;2024-01-27T10:35:40;4.97;;;2.22;;
40729;SDS011;26418;50.070;8.436;2024-01-27T10:38:06;12.88;;;2.20;;
40729;SDS011;26418;50.070;8.436;2024-01-27T10:40:32;8.00;;;2.10;;
40729;SDS011;26418;50.070;8.436;2024-01-27T10:43:05;8.73;;;2.20;;
40729;SDS011;26418;50.070;8.436;2024-01-27T10:45:34;9.73;;;2.67;;
40729;SDS011;26418;50.070;8.436;2024-01-27T10:48:04;16.98;;;3.00;;
40729;SDS011;26418;50.070;8.436;2024-01-27T10:50:37;10.63;;;2.35;;
40729;SDS011;26418;50.070;8.436;2024-01-27T10:53:04;8.75;;;2.10;;
40729;SDS011;26418;50.070;8.436;2024-01-27T10:55:33;7.70;;;2.85;;
40729;SDS011;26418;50.070;8.436;2024-01-27T10:58:02;11.30;;;3.40;;
40729;SDS011;26418;50.070;8.436;2024-01-27T11:00:31;14.43;;;3.55;;
40729;SDS011;26418;50.070;8.436;2024-01-27T11:03:01;9.95;;;3.75;;
40729;SDS011;26418;50.070;8.436;2024-01-27T11:05:28;9.90;;;3.35;;
40729;SDS011;26418;50.070;8.436;2024-01-27T11:07:57;17.02;;;4.22;;
40729;SDS011;26418;50.070;8.436;2024-01-27T11:10:24;12.93;;;4.20;;
40729;SDS011;26418;50.070;8.436;2024-01-27T11:12:51;15.88;;;3.80;;
40729;SDS011;26418;50.070;8.436;2024-01-27T11:15:20;10.02;;;3.20;;
40729;SDS011;26418;50.070;8.436;2024-01-27T11:17:46;11.55;;;3.00;;
40729;SDS011;26418;50.070;8.436;2024-01-27T11:20:12;12.15;;;2.83;;
40729;SDS011;26418;50.070;8.436;2024-01-27T11:22:39;10.82;;;3.00;;
40729;SDS011;26418;50.070;8.436;2024-01-27T11:27:35;14.50;;;3.53;;
40729;SDS011;26418;50.070;8.436;2024-01-27T11:30:01;9.13;;;3.22;;
40729;SDS011;26418;50.070;8.436;2024-01-27T11:32:28;12.05;;;3.42;;
40729;SDS011;26418;50.070;8.436;2024-01-27T11:34:55;14.68;;;3.38;;
40729;SDS011;26418;50.070;8.436;2024-01-27T11:37:20;11.30;;;3.33;;
40729;SDS011;26418;50.070;8.436;2024-01-27T11:39:50;12.23;;;3.22;;
40729;SDS011;26418;50.070;8.436;2024-01-27T11:42:17;12.52;;;3.85;;
40729;SDS011;26418;50.070;8.436;2024-01-27T11:44:43;13.27;;;3.47;;
40729;SDS011;26418;50.070;8.436;2024-01-27T11:47:28;11.20;;;3.40;;
40729;SDS011;26418;50.070;8.436;2024-01-27T11:49:55;10.32;;;2.70;;
40729;SDS011;26418;50.070;8.436;2024-01-27T11:52:23;10.60;;;2.65;;
40729;SDS011;26418;50.070;8.436;2024-01-27T11:54:56;12.07;;;3.38;;
40729;SDS011;26418;50.070;8.436;2024-01-27T11:57:26;11.43;;;3.58;;
40729;SDS011;26418;50.070;8.436;2024-01-27T11:59:53;16.48;;;3.58;;
40729;SDS011;26418;50.070;8.436;2024-01-27T12:02:19;9.63;;;2.75;;
40729;SDS011;26418;50.070;8.436;2024-01-27T12:04:45;17.10;;;3.40;;
40729;SDS011;26418;50.070;8.436;2024-01-27T12:07:12;15.40;;;3.50;;
40729;SDS011;26418;50.070;8.436;2024-01-27T12:09:37;9.63;;;3.50;;
40729;SDS011;26418;50.070;8.436;2024-01-27T12:12:04;10.45;;;3.30;;
40729;SDS011;26418;50.070;8.436;2024-01-27T12:14:46;10.07;;;3.30;;
40729;SDS011;26418;50.070;8.436;2024-01-27T12:17:14;12.63;;;3.38;;
40729;SDS011;26418;50.070;8.436;2024-01-27T12:19:46;13.15;;;3.15;;
40729;SDS011;26418;50.070;8.436;2024-01-27T12:22:22;13.40;;;3.42;;
40729;SDS011;26418;50.070;8.436;2024-01-27T12:24:55;9.95;;;3.88;;
40729;SDS011;26418;50.070;8.436;2024-01-27T12:27:32;13.82;;;4.30;;
40729;SDS011;26418;50.070;8.436;2024-01-27T12:29:59;8.63;;;3.17;;
40729;SDS011;26418;50.070;8.436;2024-01-27T12:32:25;16.50;;;4.20;;
40729;SDS011;26418;50.070;8.436;2024-01-27T12:34:51;12.90;;;3.45;;
40729;SDS011;26418;50.070;8.436;2024-01-27T12:37:17;10.30;;;3.80;;
40729;SDS011;26418;50.070;8.436;2024-01-27T12:39:43;9.52;;;3.50;;
40729;SDS011;26418;50.070;8.436;2024-01-27T12:42:09;6.93;;;3.42;;
40729;SDS011;26418;50.070;8.436;2024-01-27T12:44:35;9.02;;;3.28;;
40729;SDS011;26418;50.070;8.436;2024-01-27T12:47:01;10.57;;;3.00;;
40729;SDS011;26418;50.070;8.436;2024-01-27T12:49:27;13.90;;;3.10;;
40729;SDS011;26418;50.070;8.436;2024-01-27T12:51:52;11.88;;;3.92;;
40729;SDS011;26418;50.070;8.436;2024-01-27T12:54:18;14.85;;;4.07;;
40729;SDS011;26418;50.070;8.436;2024-01-27T12:56:44;11.45;;;3.78;;
40729;SDS011;26418;50.070;8.436;2024-01-27T12:59:10;10.07;;;3.78;;
40729;SDS011;26418;50.070;8.436;2024-01-27T13:01:36;13.13;;;4.47;;
40729;SDS011;26418;50.070;8.436;2024-01-27T13:04:02;11.88;;;4.25;;
40729;SDS011;26418;50.070;8.436;2024-01-27T13:06:28;9.23;;;3.63;;
40729;SDS011;26418;50.070;8.436;2024-01-27T13:08:53;9.57;;;3.65;;
40729;SDS011;26418;50.070;8.436;2024-01-27T13:11:19;12.07;;;3.53;;
40729;SDS011;26418;50.070;8.436;2024-01-27T13:13:45;11.02;;;3.33;;
40729;SDS011;26418;50.070;8.436;2024-01-27T13:16:11;9.52;;;2.85;;
40729;SDS011;26418;50.070;8.436;2024-01-27T13:18:36;9.98;;;2.60;;
40729;SDS011;26418;50.070;8.436;2024-01-27T13:21:03;9.77;;;3.15;;
40729;SDS011;26418;50.070;8.436;2024-01-27T13:23:30;9.70;;;3.17;;
40729;SDS011;26418;50.070;8.436;2024-01-27T13:25:56;9.23;;;2.67;;
40729;SDS011;26418;50.070;8.436;2024-01-27T13:28:22;8.05;;;3.42;;
40729;SDS011;26418;50.070;8.436;2024-01-27T13:30:47;15.25;;;3.20;;
40729;SDS011;26418;50.070;8.436;2024-01-27T13:33:15;6.50;;;3.35;;
40729;SDS011;26418;50.070;8.436;2024-01-27T13:35:41;7.20;;;3.40;;
40729;SDS011;26418;50.070;8.436;2024-01-27T13:38:15;11.90;;;3.30;;
40729;SDS011;26418;50.070;8.436;2024-01-27T13:40:41;18.33;;;3.70;;
40729;SDS011;26418;50.070;8.436;2024-01-27T13:43:07;9.13;;;2.78;;
40729;SDS011;26418;50.070;8.436;2024-01-27T13:45:33;15.80;;;2.75;;
40729;SDS011;26418;50.070;8.436;2024-01-27T13:47:59;11.60;;;3.60;;
40729;SDS011;26418;50.070;8.436;2024-01-27T13:50:25;9.18;;;2.60;;
40729;SDS011;26418;50.070;8.436;2024-01-27T13:52:52;13.98;;;3.45;;
40729;SDS011;26418;50.070;8.436;2024-01-27T13:55:18;11.40;;;3.20;;
40729;SDS011;26418;50.070;8.436;2024-01-27T13:57:44;14.30;;;2.72;;
40729;SDS011;26418;50.070;8.436;2024-01-27T14:00:10;8.10;;;2.28;;
40729;SDS011;26418;50.070;8.436;2024-01-27T14:02:36;7.82;;;2.88;;
40729;SDS011;26418;50.070;8.436;2024-01-27T14:05:02;10.98;;;2.60;;
40729;SDS011;26418;50.070;8.436;2024-01-27T14:07:29;8.48;;;3.40;;
40729;SDS011;26418;50.070;8.436;2024-01-27T14:09:54;13.48;;;3.00;;
40729;SDS011;26418;50.070;8.436;2024-01-27T14:12:20;8.07;;;2.90;;
40729;SDS011;26418;50.070;8.436;2024-01-27T14:14:45;7.28;;;2.30;;
40729;SDS011;26418;50.070;8.436;2024-01-27T14:17:11;10.68;;;2.97;;
40729;SDS011;26418;50.070;8.436;2024-01-27T14:19:36;8.85;;;2.85;;
40729;SDS011;26418;50.070;8.436;2024-01-27T14:22:02;16.20;;;3.15;;
40729;SDS011;26418;50.070;8.436;2024-01-27T14:24:28;11.35;;;4.15;;
40729;SDS011;26418;50.070;8.436;2024-01-27T14:26:54;13.10;;;3.58;;
40729;SDS011;26418;50.070;8.436;2024-01-27T14:29:19;10.68;;;4.20;;
40729;SDS011;26418;50.070;8.436;2024-01-27T14:31:45;13.93;;;4.82;;
40729;SDS011;26418;50.070;8.436;2024-01-27T14:34:11;15.85;;;4.47;;
40729;SDS011;26418;50.070;8.436;2024-01-27T14:36:37;7.95;;;3.47;;
40729;SDS011;26418;50.070;8.436;2024-01-27T14:39:03;8.40;;;3.53;;
40729;SDS011;26418;50.070;8.436;2024-01-27T14:41:29;12.98;;;3.55;;